createdAt,value
2022-09-14T00:04:40.555Z,0.43
2022-09-14T00:09:41.954Z,0.20
2022-09-14T00:14:43.505Z,0.10
2022-09-14T00:19:44.924Z,0.17
2022-09-14T00:24:46.366Z,0.20
2022-09-14T00:29:47.824Z,0.10
2022-09-14T00:34:49.319Z,0.10
2022-09-14T00:39:50.809Z,0.20
2022-09-14T00:44:52.219Z,0.77
2022-09-14T00:49:54.051Z,0.40
2022-09-14T00:54:59.400Z,0.55
2022-09-14T01:00:00.906Z,0.88
2022-09-14T01:05:03.051Z,0.60
2022-09-14T01:10:17.105Z,0.88
2022-09-14T01:15:21.190Z,0.80
2022-09-14T01:20:29.097Z,0.52
2022-09-14T01:25:58.306Z,0.80
2022-09-14T01:31:03.477Z,0.10
2022-09-14T01:36:08.837Z,0.20
2022-09-14T01:41:14.425Z,0.20
2022-09-14T01:46:24.041Z,0.40
2022-09-14T01:51:40.064Z,0.30
2022-09-14T01:57:03.065Z,0.30
2022-09-14T02:02:27.677Z,0.57
2022-09-14T02:07:29.812Z,0.25
2022-09-14T02:12:31.369Z,0.38
2022-09-14T02:17:33.121Z,0.45
2022-09-14T02:22:35.214Z,0.10
2022-09-14T02:27:36.634Z,0.60
2022-09-14T02:32:46.759Z,0.20
2022-09-14T02:38:03.175Z,0.50
2022-09-14T02:43:17.359Z,0.60
2022-09-14T02:48:37.662Z,0.20
2022-09-14T02:53:53.618Z,0.30
2022-09-14T02:58:55.059Z,0.13
2022-09-14T03:03:56.531Z,0.20
2022-09-14T03:08:57.943Z,0.22
2022-09-14T03:13:59.317Z,0.15
2022-09-14T03:19:00.734Z,0.20
2022-09-14T03:24:03.047Z,0.30
2022-09-14T03:29:06.575Z,0.32
2022-09-14T03:34:10.520Z,0.28
2022-09-14T03:39:11.944Z,0.00
2022-09-14T03:44:13.356Z,0.10
2022-09-14T03:49:14.977Z,0.40
2022-09-14T03:54:16.430Z,0.10
2022-09-14T03:59:17.835Z,0.15
2022-09-14T04:04:19.287Z,0.10
2022-09-14T04:09:21.230Z,0.13
2022-09-14T04:14:23.836Z,0.10
2022-09-14T04:19:25.279Z,0.20
2022-09-14T04:24:30.411Z,0.10
2022-09-14T04:29:32.565Z,0.13
2022-09-14T04:34:34.138Z,0.20
2022-09-14T04:39:35.816Z,0.10
2022-09-14T04:44:37.240Z,0.10
2022-09-14T04:49:38.684Z,0.40
2022-09-14T04:54:40.151Z,0.20
2022-09-14T04:59:41.551Z,0.10
2022-09-14T05:04:43.161Z,0.57
2022-09-14T05:09:44.613Z,0.13
2022-09-14T05:14:46.609Z,0.10
2022-09-14T05:19:48.061Z,0.10
2022-09-14T05:24:49.529Z,0.10
2022-09-14T05:29:51.173Z,0.20
2022-09-14T05:34:52.597Z,0.25
2022-09-14T05:39:54.204Z,0.20
2022-09-14T05:44:55.925Z,0.30
2022-09-14T05:49:57.905Z,0.25
2022-09-14T05:54:59.469Z,0.40
2022-09-14T06:00:01.193Z,0.30
2022-09-14T06:05:02.914Z,0.20
2022-09-14T06:10:04.774Z,0.10
2022-09-14T06:15:07.050Z,0.00
2022-09-14T06:20:08.713Z,0.30
2022-09-14T06:25:10.538Z,0.10
2022-09-14T06:30:12.575Z,0.20
2022-09-14T06:35:14.098Z,0.13
2022-09-14T06:40:15.660Z,0.30
2022-09-14T06:45:17.085Z,0.40
2022-09-14T06:50:18.857Z,0.47
2022-09-14T06:55:20.455Z,0.10
2022-09-14T07:00:22.045Z,0.10
2022-09-14T07:05:23.437Z,0.40
2022-09-14T07:10:24.962Z,0.20
2022-09-14T07:15:26.834Z,0.55
2022-09-14T07:20:28.244Z,0.30
2022-09-14T07:25:29.681Z,0.40
2022-09-14T07:30:31.306Z,0.22
2022-09-14T07:35:33.019Z,0.52
2022-09-14T07:40:34.583Z,0.32
2022-09-14T07:45:38.063Z,0.30
2022-09-14T07:50:39.507Z,0.40
2022-09-14T07:55:41.129Z,0.40
2022-09-14T08:00:42.543Z,0.52
2022-09-14T08:05:43.963Z,0.20
2022-09-14T08:10:45.353Z,0.20
2022-09-14T08:15:46.873Z,0.10
2022-09-14T08:20:48.307Z,0.10
2022-09-14T08:25:50.107Z,0.20
2022-09-14T08:30:51.539Z,0.30
2022-09-14T08:35:57.842Z,0.20
2022-09-14T08:41:20.583Z,0.20
2022-09-14T08:46:33.610Z,0.20
2022-09-14T08:51:35.245Z,0.13
2022-09-14T08:56:41.837Z,0.10
2022-09-14T09:02:01.134Z,0.10
2022-09-14T09:07:14.206Z,0.20
2022-09-14T09:12:40.307Z,0.13
2022-09-14T09:17:46.136Z,0.40
2022-09-14T09:22:54.624Z,0.10
2022-09-14T09:28:09.423Z,0.10
2022-09-14T09:33:22.093Z,0.63
2022-09-14T09:38:26.711Z,0.10
2022-09-14T09:43:48.349Z,0.20
2022-09-14T09:48:49.777Z,0.15
2022-09-14T09:54:13.454Z,0.38
2022-09-14T09:59:22.103Z,0.32
2022-09-14T10:04:28.059Z,0.20
2022-09-14T10:09:29.582Z,0.40
2022-09-14T10:14:33.997Z,0.47
2022-09-14T10:19:36.588Z,0.43
2022-09-14T10:24:38.574Z,0.60
2022-09-14T10:29:42.651Z,0.68
2022-09-14T10:34:44.315Z,0.75
2022-09-14T10:39:57.919Z,0.75
2022-09-14T10:45:02.509Z,0.70
2022-09-14T10:50:28.638Z,1.58
2022-09-14T10:55:38.256Z,0.80
2022-09-14T11:00:55.631Z,0.70
2022-09-14T11:06:00.074Z,0.80
2022-09-14T11:11:11.298Z,0.60
2022-09-14T11:16:57.790Z,0.95
2022-09-14T11:22:17.583Z,1.05
2022-09-14T11:27:18.993Z,0.57
2022-09-14T11:32:35.918Z,0.77
2022-09-14T11:37:42.839Z,0.55
2022-09-14T11:43:16.826Z,0.70
2022-09-14T11:48:45.644Z,0.73
2022-09-14T11:53:47.414Z,1.63
2022-09-14T11:58:49.623Z,0.68
2022-09-14T12:03:57.362Z,1.00
2022-09-14T12:09:17.421Z,0.90
2022-09-14T12:14:24.818Z,1.00
2022-09-14T12:19:27.117Z,1.30
2022-09-14T12:24:28.688Z,1.40
2022-09-14T12:29:34.125Z,1.10
2022-09-14T12:34:35.651Z,0.73
2022-09-14T12:39:37.122Z,0.80
2022-09-14T12:44:41.293Z,1.85
2022-09-14T12:49:42.830Z,1.15
2022-09-14T12:55:16.867Z,1.60
2022-09-14T13:00:20.028Z,1.10
2022-09-14T13:05:25.127Z,1.02
2022-09-14T13:15:37.240Z,1.02
2022-09-14T13:20:38.686Z,1.30
2022-09-14T13:25:40.330Z,1.48
2022-09-14T13:30:42.577Z,0.98
2022-09-14T13:35:53.287Z,1.70
2022-09-14T13:40:56.802Z,1.77
2022-09-14T13:45:58.588Z,1.42
2022-09-14T13:51:00.280Z,1.60
2022-09-14T13:56:29.997Z,1.67
2022-09-14T14:01:31.859Z,1.65
2022-09-14T14:06:35.672Z,1.33
2022-09-14T14:11:40.053Z,1.50
2022-09-14T14:16:42.666Z,1.07
2022-09-14T14:21:44.171Z,0.77
2022-09-14T14:26:51.586Z,1.23
2022-09-14T14:31:55.362Z,1.02
2022-09-14T14:36:56.777Z,1.85
2022-09-14T14:42:01.430Z,1.27
2022-09-14T14:47:04.831Z,1.25
2022-09-14T14:52:06.423Z,1.52
2022-09-14T14:57:08.803Z,1.42
2022-09-14T15:02:10.246Z,1.15
2022-09-14T15:07:11.714Z,1.00
2022-09-14T15:12:13.213Z,1.25
2022-09-14T15:17:14.654Z,1.35
2022-09-14T15:22:16.132Z,1.02
2022-09-14T15:27:17.626Z,1.15
2022-09-14T15:32:19.204Z,1.02
2022-09-14T15:37:20.951Z,0.77
2022-09-14T15:42:22.474Z,1.50
2022-09-14T15:47:24.008Z,1.05
2022-09-14T15:52:25.458Z,1.30
2022-09-14T15:57:27.012Z,1.50
2022-09-14T16:02:28.516Z,1.58
2022-09-14T16:07:30.038Z,2.13
2022-09-14T16:12:31.585Z,1.38
2022-09-14T16:17:32.990Z,1.08
2022-09-14T16:22:34.445Z,0.50
2022-09-14T16:27:35.934Z,0.43
2022-09-14T16:32:37.432Z,0.40
2022-09-14T16:37:38.873Z,0.63
2022-09-14T16:42:40.277Z,0.20
2022-09-14T16:47:41.708Z,0.45
2022-09-14T16:52:43.185Z,0.30
2022-09-14T16:57:44.556Z,0.30
2022-09-14T17:02:51.713Z,0.05
2022-09-14T17:07:53.163Z,0.40
2022-09-14T17:12:54.546Z,0.30
2022-09-14T17:17:56.032Z,0.22
2022-09-14T17:22:57.445Z,0.38
2022-09-14T17:27:58.885Z,0.20
2022-09-14T17:33:00.282Z,0.25
2022-09-14T17:38:01.759Z,0.10
2022-09-14T17:43:03.145Z,0.40
2022-09-14T17:48:06.405Z,0.50
2022-09-14T17:53:07.910Z,0.20
2022-09-14T17:58:09.601Z,0.30
2022-09-14T18:03:11.189Z,0.40
2022-09-14T18:08:12.782Z,0.30
2022-09-14T18:13:14.222Z,0.17
2022-09-14T18:18:15.593Z,0.15
2022-09-14T18:23:17.226Z,0.10
2022-09-14T18:28:18.643Z,0.05
2022-09-14T18:33:20.080Z,0.30
2022-09-14T18:38:21.500Z,0.20
2022-09-14T18:43:22.857Z,0.17
2022-09-14T18:48:24.586Z,0.20
2022-09-14T18:53:25.967Z,0.20
2022-09-14T18:58:27.654Z,0.43
2022-09-14T19:03:31.151Z,0.20
2022-09-14T19:08:32.934Z,0.20
2022-09-14T19:13:34.655Z,0.43
2022-09-14T19:18:36.663Z,0.20
2022-09-14T19:23:38.823Z,0.20
2022-09-14T19:28:41.976Z,0.10
2022-09-14T19:33:45.626Z,0.20
2022-09-14T19:38:48.971Z,0.10
2022-09-14T19:43:50.466Z,1.42
2022-09-14T19:48:53.052Z,0.10
2022-09-14T19:53:57.798Z,0.30
2022-09-14T19:59:02.055Z,0.20
2022-09-14T20:04:05.715Z,0.50
2022-09-14T20:09:15.229Z,0.50
2022-09-14T20:14:19.622Z,0.95
2022-09-14T20:19:23.916Z,1.40
2022-09-14T20:24:28.006Z,1.88
2022-09-14T20:29:31.408Z,1.85
2022-09-14T20:34:32.974Z,2.47
2022-09-14T20:39:34.787Z,1.90
2022-09-14T20:44:36.177Z,2.00
2022-09-14T20:49:37.622Z,2.20
2022-09-14T20:54:39.001Z,1.95
2022-09-14T20:59:40.381Z,2.55
2022-09-14T21:04:41.793Z,3.33
2022-09-14T21:09:43.874Z,2.13
2022-09-14T21:14:45.289Z,2.70
2022-09-14T21:19:46.818Z,2.83
2022-09-14T21:24:48.290Z,3.05
2022-09-14T21:29:50.206Z,2.42
2022-09-14T21:34:51.642Z,3.10
2022-09-14T21:39:53.821Z,2.80
2022-09-14T21:44:55.245Z,3.45
2022-09-14T21:49:56.641Z,3.20
2022-09-14T21:54:58.013Z,2.83
2022-09-14T21:59:59.484Z,3.10
2022-09-14T22:05:00.961Z,2.00
2022-09-14T22:10:02.414Z,2.80
2022-09-14T22:15:04.104Z,2.83
2022-09-14T22:20:06.744Z,2.83
2022-09-14T22:25:08.467Z,3.55
2022-09-14T22:30:10.476Z,3.30
2022-09-14T22:35:11.857Z,2.25
2022-09-14T22:40:13.304Z,2.00
2022-09-14T22:45:14.849Z,2.50
2022-09-14T22:50:16.349Z,1.83
2022-09-14T22:55:17.777Z,2.15
2022-09-14T23:00:19.261Z,2.50
2022-09-14T23:05:20.844Z,2.25
2022-09-14T23:10:22.901Z,1.70
2022-09-14T23:15:24.504Z,2.42
2022-09-14T23:20:25.880Z,1.38
2022-09-14T23:25:27.614Z,1.40
2022-09-14T23:30:29.407Z,1.48
2022-09-14T23:35:33.669Z,2.28
2022-09-14T23:40:37.166Z,1.58
2022-09-14T23:45:38.639Z,1.15
2022-09-14T23:50:40.450Z,0.80
2022-09-14T23:55:41.837Z,0.98
